GURNY02 EGAA-EGPH
Flight info
| Callsign | GURNY02 |
|---|---|
| Flight time | 0h 26m |
| Altitude | 25000 |
| Route | BLACA P600 TUNSO |
| Aircraft | B738/M-SDE2E3FGHIRWXY/LB1 |
Departure
| Time | 2026-04-23 13:06 |
|---|---|
| Airport | Belfast International Airport (EGAA) |
Arrival
| Time | 2026-04-23 13:33 |
|---|---|
| Airport | Edinburgh Airport (EGPH) |
| Time | Latitude | Longitude | Altitude | Speed | Heading |
|---|---|---|---|---|---|
| 2026-04-23 12:49 | 54.65102 | -6.22068 | 271 ft | 0 kts | 162° |
| 2026-04-23 13:00 | 54.65094 | -6.22063 | 271 ft | 3 kts | 161° |
| 2026-04-23 13:00 | 54.65058 | -6.22061 | 271 ft | 6 kts | 209° |
| 2026-04-23 13:00 | 54.65026 | -6.22129 | 271 ft | 8 kts | 225° |
| 2026-04-23 13:01 | 54.65002 | -6.22161 | 271 ft | 0 kts | 214° |
| 2026-04-23 13:01 | 54.64990 | -6.22175 | 271 ft | 3 kts | 213° |
| 2026-04-23 13:01 | 54.64963 | -6.22216 | 271 ft | 5 kts | 246° |
| 2026-04-23 13:02 | 54.64963 | -6.22222 | 271 ft | 0 kts | 272° |
| 2026-04-23 13:02 | 54.64974 | -6.22245 | 271 ft | 8 kts | 322° |
| 2026-04-23 13:02 | 54.65045 | -6.22301 | 273 ft | 7 kts | 315° |
| 2026-04-23 13:02 | 54.65053 | -6.22318 | 273 ft | 0 kts | 308° |
| 2026-04-23 13:03 | 54.65054 | -6.22321 | 272 ft | 3 kts | 307° |
| 2026-04-23 13:03 | 54.65057 | -6.22401 | 271 ft | 13 kts | 268° |
| 2026-04-23 13:03 | 54.65084 | -6.22465 | 271 ft | 6 kts | 336° |
| 2026-04-23 13:03 | 54.65140 | -6.22496 | 271 ft | 11 kts | 341° |
| 2026-04-23 13:04 | 54.65233 | -6.22549 | 273 ft | 17 kts | 342° |
| 2026-04-23 13:04 | 54.65368 | -6.22624 | 271 ft | 23 kts | 342° |
| 2026-04-23 13:04 | 54.65421 | -6.22653 | 276 ft | 1 kts | 343° |
| 2026-04-23 13:04 | 54.65447 | -6.22661 | 271 ft | 4 kts | 2° |
| 2026-04-23 13:05 | 54.65458 | -6.22648 | 271 ft | 2 kts | 42° |
| 2026-04-23 13:05 | 54.65477 | -6.22589 | 271 ft | 0 kts | 64° |
| 2026-04-23 13:06 | 54.65686 | -6.21804 | 273 ft | 118 kts | 67° |
| 2026-04-23 13:06 | 54.66123 | -6.20186 | 627 ft | 166 kts | 70° |
| 2026-04-23 13:06 | 54.66605 | -6.18216 | 1449 ft | 190 kts | 71° |
| 2026-04-23 13:07 | 54.67119 | -6.16037 | 2303 ft | 201 kts | 73° |
| 2026-04-23 13:07 | 54.67615 | -6.13751 | 3160 ft | 216 kts | 75° |
| 2026-04-23 13:07 | 54.68176 | -6.11082 | 3626 ft | 251 kts | 73° |
| 2026-04-23 13:07 | 54.68799 | -6.08189 | 4632 ft | 263 kts | 73° |
| 2026-04-23 13:08 | 54.69451 | -6.05172 | 5659 ft | 273 kts | 73° |
| 2026-04-23 13:08 | 54.70123 | -6.02065 | 6821 ft | 277 kts | 72° |
| 2026-04-23 13:08 | 54.70800 | -5.98934 | 7963 ft | 280 kts | 73° |
| 2026-04-23 13:08 | 54.71485 | -5.95756 | 9119 ft | 283 kts | 73° |
| 2026-04-23 13:09 | 54.72174 | -5.92552 | 10289 ft | 287 kts | 73° |
| 2026-04-23 13:09 | 54.72880 | -5.89256 | 11137 ft | 301 kts | 73° |
| 2026-04-23 13:09 | 54.73633 | -5.85719 | 11679 ft | 323 kts | 72° |
| 2026-04-23 13:09 | 54.74420 | -5.82027 | 12629 ft | 330 kts | 72° |
| 2026-04-23 13:10 | 54.75220 | -5.78280 | 13771 ft | 333 kts | 72° |
| 2026-04-23 13:10 | 54.76028 | -5.74491 | 14843 ft | 337 kts | 72° |
| 2026-04-23 13:10 | 54.76844 | -5.70653 | 15816 ft | 344 kts | 71° |
| 2026-04-23 13:10 | 54.77676 | -5.66731 | 16824 ft | 350 kts | 72° |
| 2026-04-23 13:11 | 54.78521 | -5.62735 | 17806 ft | 356 kts | 71° |
| 2026-04-23 13:11 | 54.79377 | -5.58677 | 18793 ft | 362 kts | 72° |
| 2026-04-23 13:11 | 54.80243 | -5.54566 | 19766 ft | 363 kts | 72° |
| 2026-04-23 13:11 | 54.81104 | -5.50473 | 20869 ft | 360 kts | 72° |
| 2026-04-23 13:12 | 54.81965 | -5.46373 | 21320 ft | 360 kts | 72° |
| 2026-04-23 13:12 | 54.82817 | -5.42302 | 21486 ft | 361 kts | 72° |
| 2026-04-23 13:12 | 54.83670 | -5.38219 | 21484 ft | 359 kts | 72° |
| 2026-04-23 13:12 | 54.84517 | -5.34156 | 21494 ft | 358 kts | 72° |
| 2026-04-23 13:13 | 54.85362 | -5.30098 | 21495 ft | 358 kts | 72° |
| 2026-04-23 13:13 | 54.86205 | -5.26040 | 21496 ft | 358 kts | 72° |
| 2026-04-23 13:13 | 54.87046 | -5.21978 | 21493 ft | 358 kts | 72° |
| 2026-04-23 13:13 | 54.88068 | -5.18094 | 21472 ft | 361 kts | 58° |
| 2026-04-23 13:14 | 54.89776 | -5.14809 | 21488 ft | 364 kts | 40° |
| 2026-04-23 13:14 | 54.91937 | -5.12523 | 21492 ft | 365 kts | 28° |
| 2026-04-23 13:14 | 54.94196 | -5.10599 | 21157 ft | 368 kts | 26° |
| 2026-04-23 13:14 | 54.96500 | -5.08685 | 20656 ft | 367 kts | 26° |
| 2026-04-23 13:15 | 54.98795 | -5.06762 | 20170 ft | 364 kts | 27° |
| 2026-04-23 13:15 | 55.01054 | -5.04839 | 19695 ft | 360 kts | 27° |
| 2026-04-23 13:15 | 55.03293 | -5.02908 | 19222 ft | 357 kts | 27° |
| 2026-04-23 13:15 | 55.05508 | -5.00984 | 18740 ft | 355 kts | 27° |
| 2026-04-23 13:16 | 55.07711 | -4.99064 | 18196 ft | 353 kts | 27° |
| 2026-04-23 13:16 | 55.09886 | -4.97157 | 17683 ft | 349 kts | 28° |
| 2026-04-23 13:16 | 55.11901 | -4.94863 | 17295 ft | 343 kts | 41° |
| 2026-04-23 13:16 | 55.13646 | -4.92068 | 17001 ft | 338 kts | 44° |
| 2026-04-23 13:17 | 55.15339 | -4.89237 | 16710 ft | 337 kts | 45° |
| 2026-04-23 13:17 | 55.17041 | -4.86373 | 16429 ft | 342 kts | 45° |
| 2026-04-23 13:17 | 55.18752 | -4.83494 | 16133 ft | 340 kts | 44° |
| 2026-04-23 13:17 | 55.20450 | -4.80645 | 15838 ft | 336 kts | 44° |
| 2026-04-23 13:18 | 55.22136 | -4.77822 | 15537 ft | 334 kts | 44° |
| 2026-04-23 13:18 | 55.23807 | -4.75028 | 15249 ft | 332 kts | 44° |
| 2026-04-23 13:18 | 55.25480 | -4.72231 | 14973 ft | 333 kts | 44° |
| 2026-04-23 13:18 | 55.27149 | -4.69438 | 14677 ft | 332 kts | 44° |
| 2026-04-23 13:19 | 55.28821 | -4.66639 | 14397 ft | 330 kts | 44° |
| 2026-04-23 13:19 | 55.30479 | -4.63862 | 14085 ft | 329 kts | 45° |
| 2026-04-23 13:19 | 55.32130 | -4.61092 | 13780 ft | 327 kts | 45° |
| 2026-04-23 13:19 | 55.33773 | -4.58333 | 13480 ft | 326 kts | 45° |
| 2026-04-23 13:20 | 55.35411 | -4.55582 | 13196 ft | 326 kts | 45° |
| 2026-04-23 13:20 | 55.37044 | -4.52832 | 12915 ft | 325 kts | 45° |
| 2026-04-23 13:20 | 55.38674 | -4.50084 | 12628 ft | 325 kts | 45° |
| 2026-04-23 13:20 | 55.40301 | -4.47340 | 12348 ft | 324 kts | 45° |
| 2026-04-23 13:21 | 55.41929 | -4.44592 | 12072 ft | 324 kts | 45° |
| 2026-04-23 13:21 | 55.43551 | -4.41849 | 11780 ft | 324 kts | 45° |
| 2026-04-23 13:21 | 55.45178 | -4.39093 | 11507 ft | 324 kts | 45° |
| 2026-04-23 13:21 | 55.46798 | -4.36346 | 11223 ft | 324 kts | 45° |
| 2026-04-23 13:22 | 55.48416 | -4.33601 | 10952 ft | 322 kts | 45° |
| 2026-04-23 13:22 | 55.50016 | -4.30882 | 10664 ft | 314 kts | 45° |
| 2026-04-23 13:22 | 55.51573 | -4.28233 | 10433 ft | 306 kts | 45° |
| 2026-04-23 13:22 | 55.53046 | -4.25726 | 10385 ft | 291 kts | 45° |
| 2026-04-23 13:23 | 55.54514 | -4.23224 | 9924 ft | 293 kts | 45° |
| 2026-04-23 13:23 | 55.55972 | -4.20735 | 9613 ft | 289 kts | 45° |
| 2026-04-23 13:23 | 55.57403 | -4.18289 | 9350 ft | 284 kts | 45° |
| 2026-04-23 13:23 | 55.58815 | -4.15872 | 9106 ft | 282 kts | 45° |
| 2026-04-23 13:24 | 55.60223 | -4.13461 | 8863 ft | 282 kts | 45° |
| 2026-04-23 13:24 | 55.61628 | -4.11054 | 8619 ft | 282 kts | 45° |
| 2026-04-23 13:24 | 55.63035 | -4.08639 | 8367 ft | 281 kts | 45° |
| 2026-04-23 13:24 | 55.64436 | -4.06232 | 8131 ft | 281 kts | 45° |
| 2026-04-23 13:25 | 55.65839 | -4.03821 | 7889 ft | 280 kts | 45° |
| 2026-04-23 13:25 | 55.67235 | -4.01413 | 7637 ft | 280 kts | 45° |
| 2026-04-23 13:25 | 55.68631 | -3.99008 | 7397 ft | 279 kts | 45° |
| 2026-04-23 13:25 | 55.70022 | -3.96609 | 7162 ft | 279 kts | 45° |
| 2026-04-23 13:26 | 55.71405 | -3.94221 | 6892 ft | 275 kts | 45° |
| 2026-04-23 13:26 | 55.72762 | -3.91875 | 6646 ft | 271 kts | 45° |
| 2026-04-23 13:26 | 55.74125 | -3.89516 | 6098 ft | 278 kts | 45° |
| 2026-04-23 13:26 | 55.75514 | -3.87109 | 5723 ft | 279 kts | 45° |
| 2026-04-23 13:27 | 55.76880 | -3.84742 | 5421 ft | 276 kts | 45° |
| 2026-04-23 13:27 | 55.78242 | -3.82380 | 5158 ft | 271 kts | 45° |
| 2026-04-23 13:27 | 55.79578 | -3.80059 | 4942 ft | 265 kts | 46° |
| 2026-04-23 13:27 | 55.80888 | -3.77781 | 4703 ft | 262 kts | 46° |
| 2026-04-23 13:28 | 55.82100 | -3.75407 | 4461 ft | 257 kts | 55° |
| 2026-04-23 13:28 | 55.83075 | -3.72776 | 4257 ft | 252 kts | 61° |
| 2026-04-23 13:28 | 55.83950 | -3.70131 | 4137 ft | 242 kts | 62° |
| 2026-04-23 13:28 | 55.84797 | -3.67562 | 3884 ft | 241 kts | 62° |
| 2026-04-23 13:29 | 55.85364 | -3.65856 | 3659 ft | 240 kts | 61° |
| 2026-04-23 13:29 | 55.86220 | -3.63305 | 3343 ft | 240 kts | 61° |
| 2026-04-23 13:29 | 55.87087 | -3.60730 | 3040 ft | 238 kts | 61° |
| 2026-04-23 13:29 | 55.87914 | -3.58267 | 2717 ft | 228 kts | 60° |
| 2026-04-23 13:30 | 55.88699 | -3.55933 | 2386 ft | 211 kts | 61° |
| 2026-04-23 13:30 | 55.89425 | -3.53777 | 2115 ft | 196 kts | 61° |
| 2026-04-23 13:30 | 55.90093 | -3.51787 | 1847 ft | 178 kts | 61° |
| 2026-04-23 13:30 | 55.90701 | -3.49980 | 1613 ft | 162 kts | 60° |
| 2026-04-23 13:31 | 55.91258 | -3.48329 | 1428 ft | 148 kts | 60° |
| 2026-04-23 13:31 | 55.91757 | -3.46848 | 1210 ft | 133 kts | 61° |
| 2026-04-23 13:31 | 55.92213 | -3.45494 | 1035 ft | 127 kts | 59° |
| 2026-04-23 13:31 | 55.92663 | -3.44160 | 847 ft | 124 kts | 60° |
| 2026-04-23 13:32 | 55.93103 | -3.42872 | 687 ft | 121 kts | 58° |
| 2026-04-23 13:32 | 55.93537 | -3.41584 | 518 ft | 121 kts | 59° |
| 2026-04-23 13:32 | 55.93967 | -3.40307 | 358 ft | 120 kts | 58° |
| 2026-04-23 13:32 | 55.94393 | -3.39036 | 206 ft | 119 kts | 58° |
| 2026-04-23 13:33 | 55.94813 | -3.37799 | 113 ft | 108 kts | 59° |
| 2026-04-23 13:33 | 55.95136 | -3.36855 | 111 ft | 68 kts | 58° |
| 2026-04-23 13:33 | 55.95264 | -3.36458 | 110 ft | 12 kts | 82° |
| 2026-04-23 13:33 | 55.95225 | -3.36380 | 113 ft | 9 kts | 150° |
| 2026-04-23 13:34 | 55.95178 | -3.36332 | 114 ft | 7 kts | 149° |
| 2026-04-23 13:34 | 55.95159 | -3.36313 | 113 ft | 1 kts | 154° |
| 2026-04-23 13:34 | 55.95145 | -3.36306 | 114 ft | 3 kts | 174° |
| 2026-04-23 13:34 | 55.95115 | -3.36342 | 113 ft | 8 kts | 236° |
| 2026-04-23 13:35 | 55.95054 | -3.36392 | 115 ft | 11 kts | 171° |
| 2026-04-23 13:35 | 55.94993 | -3.36458 | 115 ft | 10 kts | 238° |
| 2026-04-23 13:35 | 55.94967 | -3.36533 | 113 ft | 5 kts | 232° |
| 2026-04-23 13:35 | 55.94944 | -3.36534 | 115 ft | 4 kts | 161° |
| 2026-04-23 13:36 | 55.94913 | -3.36503 | 113 ft | 6 kts | 149° |
| 2026-04-23 13:36 | 55.94904 | -3.36494 | 113 ft | 1 kts | 150° |